sensor_id;sensor_type;location;lat;lon;timestamp;P1;durP1;ratioP1;P2;durP2;ratioP2
15077;SDS011;7638;49.760;8.646;2023-04-25T00:00:30;5.80;;;4.33;;
15077;SDS011;7638;49.760;8.646;2023-04-25T00:02:56;5.20;;;3.80;;
15077;SDS011;7638;49.760;8.646;2023-04-25T00:05:22;4.03;;;3.37;;
15077;SDS011;7638;49.760;8.646;2023-04-25T00:07:49;7.07;;;3.63;;
15077;SDS011;7638;49.760;8.646;2023-04-25T00:10:15;4.83;;;3.90;;
15077;SDS011;7638;49.760;8.646;2023-04-25T00:12:41;3.97;;;2.93;;
15077;SDS011;7638;49.760;8.646;2023-04-25T00:15:07;6.27;;;3.20;;
15077;SDS011;7638;49.760;8.646;2023-04-25T00:17:34;4.50;;;3.37;;
15077;SDS011;7638;49.760;8.646;2023-04-25T00:20:00;3.70;;;2.83;;
15077;SDS011;7638;49.760;8.646;2023-04-25T00:22:29;3.77;;;3.07;;
15077;SDS011;7638;49.760;8.646;2023-04-25T00:24:55;4.73;;;3.17;;
15077;SDS011;7638;49.760;8.646;2023-04-25T00:27:25;2.90;;;2.70;;
15077;SDS011;7638;49.760;8.646;2023-04-25T00:29:51;4.13;;;2.83;;
15077;SDS011;7638;49.760;8.646;2023-04-25T00:32:17;3.87;;;2.90;;
15077;SDS011;7638;49.760;8.646;2023-04-25T00:34:43;3.43;;;3.00;;
15077;SDS011;7638;49.760;8.646;2023-04-25T00:37:11;3.27;;;2.90;;
15077;SDS011;7638;49.760;8.646;2023-04-25T00:39:37;3.00;;;2.70;;
15077;SDS011;7638;49.760;8.646;2023-04-25T00:42:03;3.67;;;3.20;;
15077;SDS011;7638;49.760;8.646;2023-04-25T00:44:30;5.17;;;2.63;;
15077;SDS011;7638;49.760;8.646;2023-04-25T00:46:57;4.80;;;3.07;;
15077;SDS011;7638;49.760;8.646;2023-04-25T00:49:23;3.60;;;3.10;;
15077;SDS011;7638;49.760;8.646;2023-04-25T00:51:49;5.27;;;3.00;;
15077;SDS011;7638;49.760;8.646;2023-04-25T00:54:15;3.63;;;2.93;;
15077;SDS011;7638;49.760;8.646;2023-04-25T00:56:42;3.43;;;2.90;;
15077;SDS011;7638;49.760;8.646;2023-04-25T00:59:10;2.80;;;2.57;;
15077;SDS011;7638;49.760;8.646;2023-04-25T01:01:39;4.47;;;3.10;;
15077;SDS011;7638;49.760;8.646;2023-04-25T01:04:05;3.83;;;2.80;;
15077;SDS011;7638;49.760;8.646;2023-04-25T01:06:31;3.13;;;2.50;;
15077;SDS011;7638;49.760;8.646;2023-04-25T01:08:57;2.77;;;2.47;;
15077;SDS011;7638;49.760;8.646;2023-04-25T01:11:24;3.67;;;3.20;;
15077;SDS011;7638;49.760;8.646;2023-04-25T01:13:50;5.40;;;3.07;;
15077;SDS011;7638;49.760;8.646;2023-04-25T01:16:16;3.40;;;2.67;;
15077;SDS011;7638;49.760;8.646;2023-04-25T01:18:42;3.23;;;2.70;;
15077;SDS011;7638;49.760;8.646;2023-04-25T01:21:12;4.77;;;2.50;;
15077;SDS011;7638;49.760;8.646;2023-04-25T01:23:39;3.73;;;2.63;;
15077;SDS011;7638;49.760;8.646;2023-04-25T01:26:06;2.50;;;2.20;;
15077;SDS011;7638;49.760;8.646;2023-04-25T01:28:32;3.50;;;2.77;;
15077;SDS011;7638;49.760;8.646;2023-04-25T01:30:59;9.70;;;2.90;;
15077;SDS011;7638;49.760;8.646;2023-04-25T01:33:25;2.60;;;2.33;;
15077;SDS011;7638;49.760;8.646;2023-04-25T01:35:51;2.77;;;2.53;;
15077;SDS011;7638;49.760;8.646;2023-04-25T01:38:17;4.17;;;3.17;;
15077;SDS011;7638;49.760;8.646;2023-04-25T01:40:43;3.23;;;2.80;;
15077;SDS011;7638;49.760;8.646;2023-04-25T01:43:10;5.87;;;2.87;;
15077;SDS011;7638;49.760;8.646;2023-04-25T01:45:38;5.17;;;2.87;;
15077;SDS011;7638;49.760;8.646;2023-04-25T01:48:07;4.57;;;2.73;;
15077;SDS011;7638;49.760;8.646;2023-04-25T01:50:35;3.57;;;3.20;;
15077;SDS011;7638;49.760;8.646;2023-04-25T01:53:01;5.30;;;3.50;;
15077;SDS011;7638;49.760;8.646;2023-04-25T01:55:27;3.90;;;3.23;;
15077;SDS011;7638;49.760;8.646;2023-04-25T01:57:53;3.97;;;3.20;;
15077;SDS011;7638;49.760;8.646;2023-04-25T02:00:19;4.13;;;3.23;;
15077;SDS011;7638;49.760;8.646;2023-04-25T02:02:45;6.00;;;3.43;;
15077;SDS011;7638;49.760;8.646;2023-04-25T02:05:11;4.63;;;3.00;;
15077;SDS011;7638;49.760;8.646;2023-04-25T02:07:37;3.67;;;3.17;;
15077;SDS011;7638;49.760;8.646;2023-04-25T02:10:03;3.40;;;3.10;;
15077;SDS011;7638;49.760;8.646;2023-04-25T02:12:30;4.10;;;3.53;;
15077;SDS011;7638;49.760;8.646;2023-04-25T02:14:56;3.87;;;3.13;;
15077;SDS011;7638;49.760;8.646;2023-04-25T02:17:22;5.30;;;3.40;;
15077;SDS011;7638;49.760;8.646;2023-04-25T02:19:48;3.63;;;3.33;;
15077;SDS011;7638;49.760;8.646;2023-04-25T02:22:15;3.63;;;3.33;;
15077;SDS011;7638;49.760;8.646;2023-04-25T02:24:41;4.77;;;3.43;;
15077;SDS011;7638;49.760;8.646;2023-04-25T02:27:07;3.53;;;2.90;;
15077;SDS011;7638;49.760;8.646;2023-04-25T02:29:33;4.07;;;3.23;;
15077;SDS011;7638;49.760;8.646;2023-04-25T02:31:59;4.13;;;3.73;;
15077;SDS011;7638;49.760;8.646;2023-04-25T02:34:25;5.53;;;4.10;;
15077;SDS011;7638;49.760;8.646;2023-04-25T02:36:51;4.40;;;3.53;;
15077;SDS011;7638;49.760;8.646;2023-04-25T02:39:17;5.00;;;3.50;;
15077;SDS011;7638;49.760;8.646;2023-04-25T02:41:43;5.67;;;4.20;;
15077;SDS011;7638;49.760;8.646;2023-04-25T02:44:09;4.67;;;4.17;;
15077;SDS011;7638;49.760;8.646;2023-04-25T02:46:36;5.33;;;4.03;;
15077;SDS011;7638;49.760;8.646;2023-04-25T02:49:02;5.10;;;3.57;;
15077;SDS011;7638;49.760;8.646;2023-04-25T02:51:28;6.23;;;4.30;;
15077;SDS011;7638;49.760;8.646;2023-04-25T02:53:54;5.33;;;4.27;;
15077;SDS011;7638;49.760;8.646;2023-04-25T02:56:20;4.03;;;3.70;;
15077;SDS011;7638;49.760;8.646;2023-04-25T02:58:46;5.00;;;4.30;;
15077;SDS011;7638;49.760;8.646;2023-04-25T03:01:12;6.27;;;4.17;;
15077;SDS011;7638;49.760;8.646;2023-04-25T03:03:38;4.67;;;3.63;;
15077;SDS011;7638;49.760;8.646;2023-04-25T03:06:04;4.70;;;3.90;;
15077;SDS011;7638;49.760;8.646;2023-04-25T03:08:30;4.80;;;3.90;;
15077;SDS011;7638;49.760;8.646;2023-04-25T03:10:57;5.30;;;4.10;;
15077;SDS011;7638;49.760;8.646;2023-04-25T03:13:24;5.77;;;4.60;;
15077;SDS011;7638;49.760;8.646;2023-04-25T03:15:50;5.30;;;4.60;;
15077;SDS011;7638;49.760;8.646;2023-04-25T03:18:16;4.90;;;3.93;;
15077;SDS011;7638;49.760;8.646;2023-04-25T03:20:42;5.57;;;4.43;;
15077;SDS011;7638;49.760;8.646;2023-04-25T03:23:08;9.07;;;4.90;;
15077;SDS011;7638;49.760;8.646;2023-04-25T03:25:34;4.43;;;3.83;;
15077;SDS011;7638;49.760;8.646;2023-04-25T03:28:00;9.07;;;4.87;;
15077;SDS011;7638;49.760;8.646;2023-04-25T03:30:26;5.10;;;4.23;;
15077;SDS011;7638;49.760;8.646;2023-04-25T03:32:52;5.67;;;4.53;;
15077;SDS011;7638;49.760;8.646;2023-04-25T03:35:18;7.00;;;4.23;;
15077;SDS011;7638;49.760;8.646;2023-04-25T03:37:44;6.97;;;4.60;;
15077;SDS011;7638;49.760;8.646;2023-04-25T03:40:10;5.90;;;4.47;;
15077;SDS011;7638;49.760;8.646;2023-04-25T03:42:36;6.73;;;4.60;;
15077;SDS011;7638;49.760;8.646;2023-04-25T03:45:02;6.07;;;4.13;;
15077;SDS011;7638;49.760;8.646;2023-04-25T03:47:29;5.13;;;4.13;;
15077;SDS011;7638;49.760;8.646;2023-04-25T03:49:55;6.10;;;4.43;;
15077;SDS011;7638;49.760;8.646;2023-04-25T03:52:21;6.03;;;4.57;;
15077;SDS011;7638;49.760;8.646;2023-04-25T03:54:47;6.03;;;4.60;;
15077;SDS011;7638;49.760;8.646;2023-04-25T03:57:13;7.67;;;5.40;;
15077;SDS011;7638;49.760;8.646;2023-04-25T03:59:39;5.90;;;5.10;;
15077;SDS011;7638;49.760;8.646;2023-04-25T04:02:04;5.77;;;4.60;;
15077;SDS011;7638;49.760;8.646;2023-04-25T04:04:31;6.67;;;4.57;;
15077;SDS011;7638;49.760;8.646;2023-04-25T04:06:57;6.10;;;4.83;;
15077;SDS011;7638;49.760;8.646;2023-04-25T04:09:23;5.60;;;5.00;;
15077;SDS011;7638;49.760;8.646;2023-04-25T04:11:49;5.27;;;4.47;;
15077;SDS011;7638;49.760;8.646;2023-04-25T04:14:15;8.17;;;4.67;;
15077;SDS011;7638;49.760;8.646;2023-04-25T04:16:41;6.23;;;4.50;;
15077;SDS011;7638;49.760;8.646;2023-04-25T04:19:07;5.03;;;4.53;;
15077;SDS011;7638;49.760;8.646;2023-04-25T04:21:34;9.47;;;5.20;;
15077;SDS011;7638;49.760;8.646;2023-04-25T04:24:00;5.87;;;5.10;;
15077;SDS011;7638;49.760;8.646;2023-04-25T04:26:26;6.40;;;5.20;;
15077;SDS011;7638;49.760;8.646;2023-04-25T04:28:52;5.80;;;4.57;;
15077;SDS011;7638;49.760;8.646;2023-04-25T04:31:19;5.37;;;4.53;;
15077;SDS011;7638;49.760;8.646;2023-04-25T04:33:46;5.67;;;4.10;;
15077;SDS011;7638;49.760;8.646;2023-04-25T04:36:12;6.80;;;4.67;;
15077;SDS011;7638;49.760;8.646;2023-04-25T04:38:38;5.83;;;4.43;;
15077;SDS011;7638;49.760;8.646;2023-04-25T04:41:05;4.60;;;4.00;;
15077;SDS011;7638;49.760;8.646;2023-04-25T04:43:31;5.70;;;4.70;;
15077;SDS011;7638;49.760;8.646;2023-04-25T04:45:58;7.17;;;5.00;;
15077;SDS011;7638;49.760;8.646;2023-04-25T04:48:24;8.17;;;5.27;;
15077;SDS011;7638;49.760;8.646;2023-04-25T04:50:51;6.70;;;5.13;;
15077;SDS011;7638;49.760;8.646;2023-04-25T04:53:17;7.80;;;5.43;;
15077;SDS011;7638;49.760;8.646;2023-04-25T04:55:43;5.77;;;4.60;;
15077;SDS011;7638;49.760;8.646;2023-04-25T04:58:09;4.77;;;3.93;;
15077;SDS011;7638;49.760;8.646;2023-04-25T05:00:35;6.50;;;4.87;;
15077;SDS011;7638;49.760;8.646;2023-04-25T05:03:01;5.07;;;4.57;;
15077;SDS011;7638;49.760;8.646;2023-04-25T05:05:27;7.40;;;5.20;;
15077;SDS011;7638;49.760;8.646;2023-04-25T05:07:53;5.70;;;4.70;;
15077;SDS011;7638;49.760;8.646;2023-04-25T05:10:19;6.20;;;5.60;;
15077;SDS011;7638;49.760;8.646;2023-04-25T05:12:45;6.20;;;4.43;;
15077;SDS011;7638;49.760;8.646;2023-04-25T05:15:11;6.97;;;4.83;;
15077;SDS011;7638;49.760;8.646;2023-04-25T05:17:37;6.87;;;5.37;;
15077;SDS011;7638;49.760;8.646;2023-04-25T05:20:04;5.80;;;4.90;;
15077;SDS011;7638;49.760;8.646;2023-04-25T05:22:30;9.93;;;5.50;;
15077;SDS011;7638;49.760;8.646;2023-04-25T05:24:56;6.33;;;5.57;;
15077;SDS011;7638;49.760;8.646;2023-04-25T05:27:23;5.97;;;5.00;;
15077;SDS011;7638;49.760;8.646;2023-04-25T05:29:49;7.43;;;5.83;;
15077;SDS011;7638;49.760;8.646;2023-04-25T05:32:16;7.23;;;5.40;;
15077;SDS011;7638;49.760;8.646;2023-04-25T05:34:42;6.93;;;5.60;;
15077;SDS011;7638;49.760;8.646;2023-04-25T05:37:08;6.37;;;5.40;;
15077;SDS011;7638;49.760;8.646;2023-04-25T05:39:34;11.70;;;6.30;;
15077;SDS011;7638;49.760;8.646;2023-04-25T05:42:00;12.00;;;5.33;;
15077;SDS011;7638;49.760;8.646;2023-04-25T05:44:26;7.17;;;4.83;;
15077;SDS011;7638;49.760;8.646;2023-04-25T05:46:52;7.07;;;5.00;;
15077;SDS011;7638;49.760;8.646;2023-04-25T05:49:18;8.87;;;4.67;;
15077;SDS011;7638;49.760;8.646;2023-04-25T05:51:44;12.83;;;5.87;;
15077;SDS011;7638;49.760;8.646;2023-04-25T05:54:10;10.47;;;5.73;;
15077;SDS011;7638;49.760;8.646;2023-04-25T05:56:36;9.97;;;5.93;;
15077;SDS011;7638;49.760;8.646;2023-04-25T05:59:02;12.10;;;5.67;;
15077;SDS011;7638;49.760;8.646;2023-04-25T06:01:28;12.93;;;6.57;;
15077;SDS011;7638;49.760;8.646;2023-04-25T06:03:55;13.80;;;6.30;;
15077;SDS011;7638;49.760;8.646;2023-04-25T06:06:21;10.03;;;5.23;;
15077;SDS011;7638;49.760;8.646;2023-04-25T06:08:47;11.07;;;5.30;;
15077;SDS011;7638;49.760;8.646;2023-04-25T06:11:13;11.13;;;5.63;;
15077;SDS011;7638;49.760;8.646;2023-04-25T06:13:39;11.07;;;5.67;;
15077;SDS011;7638;49.760;8.646;2023-04-25T06:16:05;9.10;;;4.93;;
15077;SDS011;7638;49.760;8.646;2023-04-25T06:18:32;12.93;;;5.67;;
15077;SDS011;7638;49.760;8.646;2023-04-25T06:20:58;9.90;;;5.43;;
15077;SDS011;7638;49.760;8.646;2023-04-25T06:23:24;11.30;;;5.70;;
15077;SDS011;7638;49.760;8.646;2023-04-25T06:25:50;12.07;;;6.40;;
15077;SDS011;7638;49.760;8.646;2023-04-25T06:28:16;14.90;;;6.10;;
15077;SDS011;7638;49.760;8.646;2023-04-25T06:30:42;13.87;;;5.90;;
15077;SDS011;7638;49.760;8.646;2023-04-25T06:33:11;11.23;;;5.83;;
15077;SDS011;7638;49.760;8.646;2023-04-25T06:35:37;13.10;;;5.53;;
15077;SDS011;7638;49.760;8.646;2023-04-25T06:38:03;7.47;;;5.13;;
15077;SDS011;7638;49.760;8.646;2023-04-25T06:40:29;10.43;;;5.27;;
15077;SDS011;7638;49.760;8.646;2023-04-25T06:42:55;10.83;;;5.73;;
15077;SDS011;7638;49.760;8.646;2023-04-25T06:45:21;15.50;;;5.80;;
15077;SDS011;7638;49.760;8.646;2023-04-25T06:47:47;13.67;;;6.30;;
15077;SDS011;7638;49.760;8.646;2023-04-25T06:50:13;9.73;;;5.77;;
15077;SDS011;7638;49.760;8.646;2023-04-25T06:52:39;12.80;;;6.00;;
15077;SDS011;7638;49.760;8.646;2023-04-25T06:55:05;9.83;;;7.30;;
15077;SDS011;7638;49.760;8.646;2023-04-25T06:57:31;7.77;;;4.93;;
15077;SDS011;7638;49.760;8.646;2023-04-25T06:59:57;13.50;;;5.60;;
15077;SDS011;7638;49.760;8.646;2023-04-25T07:02:26;11.17;;;4.97;;
15077;SDS011;7638;49.760;8.646;2023-04-25T07:04:52;21.10;;;5.00;;
15077;SDS011;7638;49.760;8.646;2023-04-25T07:07:21;12.60;;;5.43;;
15077;SDS011;7638;49.760;8.646;2023-04-25T07:09:47;12.63;;;5.50;;
15077;SDS011;7638;49.760;8.646;2023-04-25T07:12:13;10.87;;;5.57;;
15077;SDS011;7638;49.760;8.646;2023-04-25T07:14:39;9.03;;;4.70;;
15077;SDS011;7638;49.760;8.646;2023-04-25T07:17:05;10.20;;;5.03;;
15077;SDS011;7638;49.760;8.646;2023-04-25T07:19:32;8.03;;;4.50;;
15077;SDS011;7638;49.760;8.646;2023-04-25T07:21:58;9.13;;;5.00;;
15077;SDS011;7638;49.760;8.646;2023-04-25T07:24:24;8.77;;;4.70;;
15077;SDS011;7638;49.760;8.646;2023-04-25T07:26:50;8.93;;;4.07;;
15077;SDS011;7638;49.760;8.646;2023-04-25T07:29:16;8.57;;;3.93;;
15077;SDS011;7638;49.760;8.646;2023-04-25T07:31:42;8.60;;;4.00;;
15077;SDS011;7638;49.760;8.646;2023-04-25T07:34:08;8.37;;;3.77;;
15077;SDS011;7638;49.760;8.646;2023-04-25T07:36:35;6.27;;;3.73;;
15077;SDS011;7638;49.760;8.646;2023-04-25T07:39:01;9.37;;;4.53;;
15077;SDS011;7638;49.760;8.646;2023-04-25T07:41:27;6.20;;;3.63;;
15077;SDS011;7638;49.760;8.646;2023-04-25T07:43:53;7.47;;;4.33;;
15077;SDS011;7638;49.760;8.646;2023-04-25T07:46:19;6.63;;;3.47;;
15077;SDS011;7638;49.760;8.646;2023-04-25T07:48:45;8.70;;;3.73;;
15077;SDS011;7638;49.760;8.646;2023-04-25T07:51:11;13.07;;;4.47;;
15077;SDS011;7638;49.760;8.646;2023-04-25T07:53:37;8.30;;;4.10;;
15077;SDS011;7638;49.760;8.646;2023-04-25T07:56:04;7.53;;;4.43;;
15077;SDS011;7638;49.760;8.646;2023-04-25T07:58:30;8.67;;;4.13;;
15077;SDS011;7638;49.760;8.646;2023-04-25T08:00:56;7.13;;;3.80;;
15077;SDS011;7638;49.760;8.646;2023-04-25T08:03:22;8.60;;;4.20;;
15077;SDS011;7638;49.760;8.646;2023-04-25T08:05:48;10.17;;;4.90;;
15077;SDS011;7638;49.760;8.646;2023-04-25T08:08:14;11.53;;;4.83;;
15077;SDS011;7638;49.760;8.646;2023-04-25T08:10:40;5.77;;;3.60;;
15077;SDS011;7638;49.760;8.646;2023-04-25T08:13:07;11.30;;;4.30;;
15077;SDS011;7638;49.760;8.646;2023-04-25T08:15:33;7.77;;;3.90;;
15077;SDS011;7638;49.760;8.646;2023-04-25T08:18:01;6.33;;;3.70;;
15077;SDS011;7638;49.760;8.646;2023-04-25T08:20:27;8.23;;;3.67;;
15077;SDS011;7638;49.760;8.646;2023-04-25T08:22:53;7.17;;;4.27;;
15077;SDS011;7638;49.760;8.646;2023-04-25T08:25:19;7.27;;;4.00;;
15077;SDS011;7638;49.760;8.646;2023-04-25T08:27:46;7.97;;;4.17;;
15077;SDS011;7638;49.760;8.646;2023-04-25T08:30:12;13.57;;;5.07;;
15077;SDS011;7638;49.760;8.646;2023-04-25T08:32:39;14.17;;;4.87;;
15077;SDS011;7638;49.760;8.646;2023-04-25T08:35:05;6.60;;;3.90;;
15077;SDS011;7638;49.760;8.646;2023-04-25T08:37:31;7.13;;;4.13;;
15077;SDS011;7638;49.760;8.646;2023-04-25T08:39:57;10.93;;;4.60;;
15077;SDS011;7638;49.760;8.646;2023-04-25T08:42:24;7.80;;;2.93;;
15077;SDS011;7638;49.760;8.646;2023-04-25T08:44:50;7.20;;;3.87;;
15077;SDS011;7638;49.760;8.646;2023-04-25T08:47:17;8.70;;;4.03;;
15077;SDS011;7638;49.760;8.646;2023-04-25T08:49:45;10.73;;;3.97;;
15077;SDS011;7638;49.760;8.646;2023-04-25T08:52:12;10.13;;;4.10;;
15077;SDS011;7638;49.760;8.646;2023-04-25T08:54:39;7.70;;;3.63;;
15077;SDS011;7638;49.760;8.646;2023-04-25T08:57:08;4.97;;;3.60;;
15077;SDS011;7638;49.760;8.646;2023-04-25T08:59:34;9.93;;;4.33;;
15077;SDS011;7638;49.760;8.646;2023-04-25T09:02:02;7.13;;;3.80;;
15077;SDS011;7638;49.760;8.646;2023-04-25T09:04:30;8.93;;;4.73;;
15077;SDS011;7638;49.760;8.646;2023-04-25T09:06:56;10.73;;;4.27;;
15077;SDS011;7638;49.760;8.646;2023-04-25T09:09:23;6.33;;;3.77;;
15077;SDS011;7638;49.760;8.646;2023-04-25T09:11:49;7.87;;;4.33;;
15077;SDS011;7638;49.760;8.646;2023-04-25T09:14:17;8.23;;;3.53;;
15077;SDS011;7638;49.760;8.646;2023-04-25T09:19:22;7.93;;;4.00;;
15077;SDS011;7638;49.760;8.646;2023-04-25T09:21:51;10.60;;;4.37;;
15077;SDS011;7638;49.760;8.646;2023-04-25T09:24:32;8.13;;;3.30;;
15077;SDS011;7638;49.760;8.646;2023-04-25T09:26:58;10.07;;;3.40;;
15077;SDS011;7638;49.760;8.646;2023-04-25T09:29:31;8.23;;;3.57;;
15077;SDS011;7638;49.760;8.646;2023-04-25T09:32:10;3.90;;;2.80;;
15077;SDS011;7638;49.760;8.646;2023-04-25T09:34:40;8.33;;;2.90;;
15077;SDS011;7638;49.760;8.646;2023-04-25T09:37:10;4.83;;;2.90;;
15077;SDS011;7638;49.760;8.646;2023-04-25T09:39:37;3.87;;;2.60;;
15077;SDS011;7638;49.760;8.646;2023-04-25T09:42:03;4.13;;;2.33;;
15077;SDS011;7638;49.760;8.646;2023-04-25T09:44:29;6.33;;;3.90;;
15077;SDS011;7638;49.760;8.646;2023-04-25T09:46:55;6.27;;;3.00;;
15077;SDS011;7638;49.760;8.646;2023-04-25T09:49:22;4.03;;;2.90;;
15077;SDS011;7638;49.760;8.646;2023-04-25T09:51:55;5.40;;;2.93;;
15077;SDS011;7638;49.760;8.646;2023-04-25T09:54:22;6.47;;;2.73;;
15077;SDS011;7638;49.760;8.646;2023-04-25T09:56:48;9.80;;;3.43;;
15077;SDS011;7638;49.760;8.646;2023-04-25T09:59:18;5.83;;;2.70;;
15077;SDS011;7638;49.760;8.646;2023-04-25T10:01:45;9.97;;;2.50;;
15077;SDS011;7638;49.760;8.646;2023-04-25T10:04:11;6.63;;;2.40;;
15077;SDS011;7638;49.760;8.646;2023-04-25T10:06:38;4.23;;;2.40;;
15077;SDS011;7638;49.760;8.646;2023-04-25T10:09:05;6.33;;;2.73;;
15077;SDS011;7638;49.760;8.646;2023-04-25T10:11:33;5.67;;;2.47;;
15077;SDS011;7638;49.760;8.646;2023-04-25T10:14:00;5.73;;;2.43;;
15077;SDS011;7638;49.760;8.646;2023-04-25T10:16:29;4.40;;;2.17;;
15077;SDS011;7638;49.760;8.646;2023-04-25T10:18:55;7.27;;;2.13;;
15077;SDS011;7638;49.760;8.646;2023-04-25T10:21:22;8.83;;;2.67;;
15077;SDS011;7638;49.760;8.646;2023-04-25T10:23:48;2.37;;;2.00;;
15077;SDS011;7638;49.760;8.646;2023-04-25T10:26:15;4.50;;;2.47;;
15077;SDS011;7638;49.760;8.646;2023-04-25T10:28:58;3.70;;;2.40;;
15077;SDS011;7638;49.760;8.646;2023-04-25T10:31:25;4.80;;;2.20;;
15077;SDS011;7638;49.760;8.646;2023-04-25T10:33:51;5.80;;;2.47;;
15077;SDS011;7638;49.760;8.646;2023-04-25T10:36:19;2.53;;;2.27;;
15077;SDS011;7638;49.760;8.646;2023-04-25T10:38:47;4.57;;;2.47;;
15077;SDS011;7638;49.760;8.646;2023-04-25T10:41:15;3.43;;;2.30;;
15077;SDS011;7638;49.760;8.646;2023-04-25T10:43:43;5.83;;;2.30;;
15077;SDS011;7638;49.760;8.646;2023-04-25T10:48:43;5.13;;;2.27;;
15077;SDS011;7638;49.760;8.646;2023-04-25T10:51:11;3.47;;;2.53;;
15077;SDS011;7638;49.760;8.646;2023-04-25T10:53:37;3.40;;;2.90;;
15077;SDS011;7638;49.760;8.646;2023-04-25T10:56:38;4.63;;;3.03;;
15077;SDS011;7638;49.760;8.646;2023-04-25T10:59:04;3.37;;;2.33;;
15077;SDS011;7638;49.760;8.646;2023-04-25T11:01:35;5.80;;;2.93;;
15077;SDS011;7638;49.760;8.646;2023-04-25T11:04:01;4.27;;;2.40;;
15077;SDS011;7638;49.760;8.646;2023-04-25T11:09:12;10.03;;;3.27;;
15077;SDS011;7638;49.760;8.646;2023-04-25T11:11:39;3.17;;;2.80;;
15077;SDS011;7638;49.760;8.646;2023-04-25T11:14:05;3.63;;;2.77;;
15077;SDS011;7638;49.760;8.646;2023-04-25T11:16:31;4.33;;;3.07;;
15077;SDS011;7638;49.760;8.646;2023-04-25T11:18:57;8.30;;;2.97;;
15077;SDS011;7638;49.760;8.646;2023-04-25T11:21:25;4.77;;;3.33;;
15077;SDS011;7638;49.760;8.646;2023-04-25T11:23:56;6.37;;;3.10;;
15077;SDS011;7638;49.760;8.646;2023-04-25T11:26:23;4.30;;;2.80;;
15077;SDS011;7638;49.760;8.646;2023-04-25T11:28:49;4.73;;;3.20;;
15077;SDS011;7638;49.760;8.646;2023-04-25T11:31:15;6.77;;;3.43;;
15077;SDS011;7638;49.760;8.646;2023-04-25T11:33:41;6.00;;;3.13;;
15077;SDS011;7638;49.760;8.646;2023-04-25T11:36:09;4.57;;;3.93;;
15077;SDS011;7638;49.760;8.646;2023-04-25T11:38:35;5.90;;;3.70;;
15077;SDS011;7638;49.760;8.646;2023-04-25T11:41:02;6.17;;;3.43;;
15077;SDS011;7638;49.760;8.646;2023-04-25T11:43:28;6.20;;;3.80;;
15077;SDS011;7638;49.760;8.646;2023-04-25T11:45:54;6.47;;;3.63;;
15077;SDS011;7638;49.760;8.646;2023-04-25T11:48:20;6.43;;;3.73;;
15077;SDS011;7638;49.760;8.646;2023-04-25T11:50:46;6.63;;;4.00;;
15077;SDS011;7638;49.760;8.646;2023-04-25T11:53:12;7.63;;;3.83;;
15077;SDS011;7638;49.760;8.646;2023-04-25T11:55:38;7.03;;;3.07;;
15077;SDS011;7638;49.760;8.646;2023-04-25T11:58:05;4.07;;;3.37;;
15077;SDS011;7638;49.760;8.646;2023-04-25T12:00:31;4.43;;;4.03;;
15077;SDS011;7638;49.760;8.646;2023-04-25T12:02:57;5.03;;;3.40;;
15077;SDS011;7638;49.760;8.646;2023-04-25T12:05:24;6.03;;;3.27;;
15077;SDS011;7638;49.760;8.646;2023-04-25T12:07:50;4.20;;;3.37;;
15077;SDS011;7638;49.760;8.646;2023-04-25T12:10:17;5.80;;;3.50;;
15077;SDS011;7638;49.760;8.646;2023-04-25T12:12:44;5.70;;;3.37;;
15077;SDS011;7638;49.760;8.646;2023-04-25T12:15:14;7.47;;;3.53;;
15077;SDS011;7638;49.760;8.646;2023-04-25T12:17:44;6.90;;;3.93;;
15077;SDS011;7638;49.760;8.646;2023-04-25T12:20:12;6.60;;;3.17;;
15077;SDS011;7638;49.760;8.646;2023-04-25T12:22:40;7.33;;;3.67;;
15077;SDS011;7638;49.760;8.646;2023-04-25T12:25:09;11.17;;;4.07;;
15077;SDS011;7638;49.760;8.646;2023-04-25T12:27:39;5.70;;;3.43;;
15077;SDS011;7638;49.760;8.646;2023-04-25T12:30:07;7.87;;;3.40;;
15077;SDS011;7638;49.760;8.646;2023-04-25T12:32:33;5.33;;;3.73;;
15077;SDS011;7638;49.760;8.646;2023-04-25T12:35:00;6.63;;;3.47;;
15077;SDS011;7638;49.760;8.646;2023-04-25T12:37:28;8.47;;;3.80;;
15077;SDS011;7638;49.760;8.646;2023-04-25T12:39:54;9.60;;;3.33;;
15077;SDS011;7638;49.760;8.646;2023-04-25T12:42:20;10.80;;;3.77;;
15077;SDS011;7638;49.760;8.646;2023-04-25T12:44:47;9.00;;;3.77;;
15077;SDS011;7638;49.760;8.646;2023-04-25T12:47:13;9.43;;;3.97;;
15077;SDS011;7638;49.760;8.646;2023-04-25T12:49:39;14.60;;;3.93;;
15077;SDS011;7638;49.760;8.646;2023-04-25T12:52:05;6.27;;;3.20;;
15077;SDS011;7638;49.760;8.646;2023-04-25T12:54:31;6.57;;;3.77;;
15077;SDS011;7638;49.760;8.646;2023-04-25T12:56:57;6.83;;;2.90;;
15077;SDS011;7638;49.760;8.646;2023-04-25T12:59:24;5.23;;;3.33;;
15077;SDS011;7638;49.760;8.646;2023-04-25T13:01:50;4.30;;;3.37;;
15077;SDS011;7638;49.760;8.646;2023-04-25T13:04:16;7.37;;;3.50;;
15077;SDS011;7638;49.760;8.646;2023-04-25T13:06:42;8.87;;;3.43;;
15077;SDS011;7638;49.760;8.646;2023-04-25T13:09:08;5.70;;;3.07;;
15077;SDS011;7638;49.760;8.646;2023-04-25T13:11:35;9.47;;;3.27;;
15077;SDS011;7638;49.760;8.646;2023-04-25T13:14:01;7.43;;;3.30;;
15077;SDS011;7638;49.760;8.646;2023-04-25T13:16:27;6.73;;;3.43;;
15077;SDS011;7638;49.760;8.646;2023-04-25T13:18:53;7.10;;;2.67;;
15077;SDS011;7638;49.760;8.646;2023-04-25T13:21:21;6.30;;;2.83;;
15077;SDS011;7638;49.760;8.646;2023-04-25T13:23:47;3.47;;;2.60;;
15077;SDS011;7638;49.760;8.646;2023-04-25T13:26:12;9.53;;;2.83;;
15077;SDS011;7638;49.760;8.646;2023-04-25T13:28:38;5.80;;;3.40;;
15077;SDS011;7638;49.760;8.646;2023-04-25T13:31:05;4.03;;;2.50;;
15077;SDS011;7638;49.760;8.646;2023-04-25T13:33:31;4.67;;;2.33;;
15077;SDS011;7638;49.760;8.646;2023-04-25T13:35:57;7.53;;;3.30;;
15077;SDS011;7638;49.760;8.646;2023-04-25T13:38:25;4.47;;;2.30;;
15077;SDS011;7638;49.760;8.646;2023-04-25T13:40:51;10.23;;;3.17;;
15077;SDS011;7638;49.760;8.646;2023-04-25T13:43:19;14.03;;;2.83;;
15077;SDS011;7638;49.760;8.646;2023-04-25T13:45:46;4.87;;;2.83;;
15077;SDS011;7638;49.760;8.646;2023-04-25T13:48:12;5.37;;;2.80;;
15077;SDS011;7638;49.760;8.646;2023-04-25T13:50:38;5.53;;;2.57;;
15077;SDS011;7638;49.760;8.646;2023-04-25T13:53:04;6.77;;;2.70;;
15077;SDS011;7638;49.760;8.646;2023-04-25T13:55:30;5.17;;;2.50;;
15077;SDS011;7638;49.760;8.646;2023-04-25T13:57:56;4.97;;;2.80;;
15077;SDS011;7638;49.760;8.646;2023-04-25T14:00:22;7.43;;;3.00;;
15077;SDS011;7638;49.760;8.646;2023-04-25T14:02:48;2.57;;;2.00;;
15077;SDS011;7638;49.760;8.646;2023-04-25T14:05:15;8.23;;;3.07;;
15077;SDS011;7638;49.760;8.646;2023-04-25T14:07:41;8.70;;;2.03;;
15077;SDS011;7638;49.760;8.646;2023-04-25T14:10:07;3.73;;;2.37;;
15077;SDS011;7638;49.760;8.646;2023-04-25T14:12:33;8.10;;;2.97;;
15077;SDS011;7638;49.760;8.646;2023-04-25T14:15:00;6.27;;;2.87;;
15077;SDS011;7638;49.760;8.646;2023-04-25T14:17:26;6.63;;;3.57;;
15077;SDS011;7638;49.760;8.646;2023-04-25T14:19:52;6.33;;;3.03;;
15077;SDS011;7638;49.760;8.646;2023-04-25T14:22:18;8.03;;;2.60;;
15077;SDS011;7638;49.760;8.646;2023-04-25T14:24:44;7.27;;;3.00;;
15077;SDS011;7638;49.760;8.646;2023-04-25T14:27:10;7.27;;;2.97;;
15077;SDS011;7638;49.760;8.646;2023-04-25T14:29:36;8.93;;;3.20;;
15077;SDS011;7638;49.760;8.646;2023-04-25T14:32:02;4.63;;;3.17;;
15077;SDS011;7638;49.760;8.646;2023-04-25T14:34:30;7.10;;;2.60;;
15077;SDS011;7638;49.760;8.646;2023-04-25T14:36:56;13.50;;;2.90;;
15077;SDS011;7638;49.760;8.646;2023-04-25T14:39:22;5.00;;;2.53;;
15077;SDS011;7638;49.760;8.646;2023-04-25T14:41:48;6.63;;;2.23;;
15077;SDS011;7638;49.760;8.646;2023-04-25T14:44:15;6.50;;;2.33;;
15077;SDS011;7638;49.760;8.646;2023-04-25T14:46:40;3.90;;;2.53;;
15077;SDS011;7638;49.760;8.646;2023-04-25T14:49:07;4.90;;;2.73;;
15077;SDS011;7638;49.760;8.646;2023-04-25T14:51:32;5.00;;;2.03;;
15077;SDS011;7638;49.760;8.646;2023-04-25T14:53:58;7.63;;;2.20;;
15077;SDS011;7638;49.760;8.646;2023-04-25T14:56:25;5.17;;;2.37;;
15077;SDS011;7638;49.760;8.646;2023-04-25T14:58:51;4.27;;;2.00;;
15077;SDS011;7638;49.760;8.646;2023-04-25T15:01:17;10.70;;;2.60;;
15077;SDS011;7638;49.760;8.646;2023-04-25T15:03:45;4.97;;;2.47;;